UTAKUTNU

Guest
Details From UTAK - TURKMENBASHI
To UTNU - URGENCH
Flight Number -
Tags generated
Created
Modified
Stats Distance 367 nm / 679 km
Max Altitude 35,000 ft / 10,668 m
Waypoints 8
Social Downloads 0
Likes 0
Share VATSIM

Download

Looking for another format? Having issues loading an existing format? Contact us
Advertisement - Login to hide

Notes

Basic altitude profile: - Ascent Rate: 2500ft/min - Ascent Speed: 250kts - Cruise Altitude: 35000ft - Cruise Speed: 420kts - Descent Rate: 1500ft/min - Descent Speed: 250kts Options: - Use NATs: yes - Use PACOTS: yes - Use low airways: yes - Use high airways: yes

Route

UTAK TUGTA B143E OTBOR UTNU

ID Type Via Altitude Latitude Longitude Leg Dist Tot Dist Heading (true) Name
O UTAK APT - 0 ft / 0 m 40.06347˚ 53.00722˚ - 0 nm - TURKMENBASHI
TUGTA FIX - 23,000 ft / 7,010 m 39.89000˚ 54.45000˚ 67 nm 67 nm 98° / 99° -
IDRIS FIX B143E (AWY-HI) 35,000 ft / 10,668 m 40.26833˚ 55.75000˚ 63 nm 131 nm 69° / 70° -
BALAT FIX B143E (AWY-HI) 35,000 ft / 10,668 m 40.64167˚ 57.10000˚ 65 nm 196 nm 70° / 70° -
LINDA FIX B143E (AWY-HI) 29,900 ft / 9,114 m 40.78333˚ 57.63333˚ 25 nm 222 nm 71° / 71° -
TIMGA FIX B143E (AWY-LO) 9,800 ft / 2,987 m 41.34333˚ 59.66833˚ 98 nm 320 nm 69° / 71° -
OTBOR FIX B143E (AWY-LO) 4,500 ft / 1,372 m 41.47167˚ 60.19833˚ 25 nm 345 nm 72° / 72° -
O UTNU APT - 0 ft / 0 m 41.58309˚ 60.64335˚ 21 nm 366 nm 71° / 72° URGENCH

Altitude Profile

Advertisement - Login to hide

Weather


0- 5 10 15 20 25 30 35+ Temperature / ° C

Clouds and Precipitation
Forecast for 2017-12-13 06:00 UTC. Updated 41 minutes ago

Ground ~20,000 ft ~40,000 ft Winds

UTAK

Details ICAO UTAK (KRW)
Name TURKMENBASHI
Region Tajikistan, Turkmenistan and Uzbekistan
Timezone Asia/Ashgabat (UTC+5.0)
Stats Elevation 279 ft / 85 m (AMSL)
Location 40.063472° 53.007222°
Runways 1
Magnetic Variation 6.000° E

METAR

UTAK 130400Z 11008KT CAVOK M01/M04 Q1028 R16R/CLRD70 NOSIG

Decode

TAF

Not found

Departure Runways

ID Width Length Bearing (true) Bearing (mag) Surface Threshold Offset Overrun Length
16 144 ft / 44 m 8,221 ft / 2,506 m 166.91° 160.91° Concrete 0 ft / 0 m 0 ft / 0 m
34 144 ft / 44 m 8,221 ft / 2,506 m 346.91° 340.91° Concrete 0 ft / 0 m 0 ft / 0 m

UTNU

Details ICAO UTNU (UGC)
Name URGENCH
Region Tajikistan, Turkmenistan and Uzbekistan
Timezone Asia/Samarkand (UTC+5.0)
Stats Elevation 320 ft / 98 m (AMSL)
Location 41.583093° 60.643350°
Runways 1
Magnetic Variation 6.217° E

METAR

UTNU 130330Z 04006KT 8000 OVC008 M08/M10 Q1032 R31/CLRD70 NOSIG

Decode

TAF

TAF UTNU 122305Z 1300/1324 04010G20KT 7000 OVC008 TEMPO 1300/1306 06008KT 3000 -SN BR OVC005 PROB30 TEMPO 1300/1306 0800 -FZFG VV002

Decode

Destination Runways

ID Width Length Bearing (true) Bearing (mag) Surface Threshold Offset Overrun Length
13 165 ft / 50 m 11,063 ft / 3,372 m 138.91° 132.69° Asphalt 0 ft / 0 m 164 ft / 50 m
31 165 ft / 50 m 11,063 ft / 3,372 m 318.93° 312.71° Asphalt 0 ft / 0 m 164 ft / 50 m

Popular Alternatives